sensor_id;sensor_type;location;lat;lon;timestamp;temperature;humidity
10233;DHT22;5161;48.174;11.756;2023-12-20T00:00:20;8.70;52.70
10233;DHT22;5161;48.174;11.756;2023-12-20T00:02:45;8.80;52.70
10233;DHT22;5161;48.174;11.756;2023-12-20T00:05:13;8.90;52.20
10233;DHT22;5161;48.174;11.756;2023-12-20T00:07:39;8.90;53.20
10233;DHT22;5161;48.174;11.756;2023-12-20T00:10:05;8.90;52.60
10233;DHT22;5161;48.174;11.756;2023-12-20T00:12:31;8.90;52.80
10233;DHT22;5161;48.174;11.756;2023-12-20T00:14:56;8.80;52.90
10233;DHT22;5161;48.174;11.756;2023-12-20T00:17:22;8.80;53.30
10233;DHT22;5161;48.174;11.756;2023-12-20T00:19:47;8.80;53.40
10233;DHT22;5161;48.174;11.756;2023-12-20T00:22:13;8.80;53.50
10233;DHT22;5161;48.174;11.756;2023-12-20T00:24:38;8.70;53.70
10233;DHT22;5161;48.174;11.756;2023-12-20T00:27:04;8.70;53.90
10233;DHT22;5161;48.174;11.756;2023-12-20T00:29:30;8.70;53.90
10233;DHT22;5161;48.174;11.756;2023-12-20T00:31:55;8.60;53.80
10233;DHT22;5161;48.174;11.756;2023-12-20T00:34:21;8.50;54.00
10233;DHT22;5161;48.174;11.756;2023-12-20T00:36:46;8.60;54.30
10233;DHT22;5161;48.174;11.756;2023-12-20T00:39:12;8.60;54.10
10233;DHT22;5161;48.174;11.756;2023-12-20T00:41:38;8.60;54.30
10233;DHT22;5161;48.174;11.756;2023-12-20T00:44:03;8.60;54.30
10233;DHT22;5161;48.174;11.756;2023-12-20T00:46:29;8.70;54.40
10233;DHT22;5161;48.174;11.756;2023-12-20T00:48:55;8.80;54.30
10233;DHT22;5161;48.174;11.756;2023-12-20T00:51:20;8.80;54.30
10233;DHT22;5161;48.174;11.756;2023-12-20T00:53:48;8.80;54.30
10233;DHT22;5161;48.174;11.756;2023-12-20T00:56:14;8.80;54.40
10233;DHT22;5161;48.174;11.756;2023-12-20T00:58:40;8.80;54.30
10233;DHT22;5161;48.174;11.756;2023-12-20T01:01:05;8.80;54.20
10233;DHT22;5161;48.174;11.756;2023-12-20T01:03:31;8.80;54.30
10233;DHT22;5161;48.174;11.756;2023-12-20T01:05:56;8.80;54.00
10233;DHT22;5161;48.174;11.756;2023-12-20T01:08:22;8.70;54.00
10233;DHT22;5161;48.174;11.756;2023-12-20T01:10:48;8.80;53.80
10233;DHT22;5161;48.174;11.756;2023-12-20T01:13:14;8.80;53.60
10233;DHT22;5161;48.174;11.756;2023-12-20T01:15:39;8.80;53.60
10233;DHT22;5161;48.174;11.756;2023-12-20T01:18:05;8.70;53.60
10233;DHT22;5161;48.174;11.756;2023-12-20T01:20:30;8.70;53.80
10233;DHT22;5161;48.174;11.756;2023-12-20T01:22:56;8.70;53.60
10233;DHT22;5161;48.174;11.756;2023-12-20T01:25:22;8.70;53.50
10233;DHT22;5161;48.174;11.756;2023-12-20T01:27:47;8.60;53.30
10233;DHT22;5161;48.174;11.756;2023-12-20T01:30:13;8.60;53.40
10233;DHT22;5161;48.174;11.756;2023-12-20T01:32:39;8.60;53.40
10233;DHT22;5161;48.174;11.756;2023-12-20T01:35:04;8.60;53.60
10233;DHT22;5161;48.174;11.756;2023-12-20T01:37:30;8.70;53.10
10233;DHT22;5161;48.174;11.756;2023-12-20T01:39:56;8.70;53.10
10233;DHT22;5161;48.174;11.756;2023-12-20T01:42:21;8.80;53.40
10233;DHT22;5161;48.174;11.756;2023-12-20T01:44:47;8.80;53.00
10233;DHT22;5161;48.174;11.756;2023-12-20T01:47:13;8.80;53.10
10233;DHT22;5161;48.174;11.756;2023-12-20T01:49:39;8.90;53.30
10233;DHT22;5161;48.174;11.756;2023-12-20T01:52:05;9.00;53.00
10233;DHT22;5161;48.174;11.756;2023-12-20T01:54:31;9.00;52.80
10233;DHT22;5161;48.174;11.756;2023-12-20T01:56:57;8.90;53.10
10233;DHT22;5161;48.174;11.756;2023-12-20T01:59:23;8.80;53.30
10233;DHT22;5161;48.174;11.756;2023-12-20T02:01:49;8.90;53.60
10233;DHT22;5161;48.174;11.756;2023-12-20T02:04:15;8.90;53.70
10233;DHT22;5161;48.174;11.756;2023-12-20T02:06:42;9.00;53.80
10233;DHT22;5161;48.174;11.756;2023-12-20T02:09:09;9.10;53.90
10233;DHT22;5161;48.174;11.756;2023-12-20T02:11:36;9.10;53.90
10233;DHT22;5161;48.174;11.756;2023-12-20T02:14:01;9.10;53.90
10233;DHT22;5161;48.174;11.756;2023-12-20T02:16:27;9.00;53.90
10233;DHT22;5161;48.174;11.756;2023-12-20T02:18:53;9.00;54.10
10233;DHT22;5161;48.174;11.756;2023-12-20T02:21:25;9.10;54.40
10233;DHT22;5161;48.174;11.756;2023-12-20T02:23:50;9.10;54.50
10233;DHT22;5161;48.174;11.756;2023-12-20T02:26:16;9.10;54.10
10233;DHT22;5161;48.174;11.756;2023-12-20T02:28:42;9.10;54.40
10233;DHT22;5161;48.174;11.756;2023-12-20T02:31:07;9.00;54.30
10233;DHT22;5161;48.174;11.756;2023-12-20T02:33:33;9.10;54.40
10233;DHT22;5161;48.174;11.756;2023-12-20T02:35:58;9.10;54.30
10233;DHT22;5161;48.174;11.756;2023-12-20T02:38:24;9.10;54.30
10233;DHT22;5161;48.174;11.756;2023-12-20T02:40:50;9.00;54.40
10233;DHT22;5161;48.174;11.756;2023-12-20T02:43:15;8.90;54.60
10233;DHT22;5161;48.174;11.756;2023-12-20T02:45:41;8.90;54.60
10233;DHT22;5161;48.174;11.756;2023-12-20T02:48:06;8.90;54.70
10233;DHT22;5161;48.174;11.756;2023-12-20T02:50:32;8.90;54.70
10233;DHT22;5161;48.174;11.756;2023-12-20T02:52:57;8.90;54.90
10233;DHT22;5161;48.174;11.756;2023-12-20T02:55:23;9.00;55.10
10233;DHT22;5161;48.174;11.756;2023-12-20T02:57:49;9.10;55.20
10233;DHT22;5161;48.174;11.756;2023-12-20T03:00:14;9.10;55.10
10233;DHT22;5161;48.174;11.756;2023-12-20T03:02:40;9.10;55.20
10233;DHT22;5161;48.174;11.756;2023-12-20T03:05:06;9.10;55.30
10233;DHT22;5161;48.174;11.756;2023-12-20T03:07:31;9.20;55.60
10233;DHT22;5161;48.174;11.756;2023-12-20T03:09:57;9.10;55.50
10233;DHT22;5161;48.174;11.756;2023-12-20T03:12:23;9.10;55.70
10233;DHT22;5161;48.174;11.756;2023-12-20T03:14:48;8.90;55.90
10233;DHT22;5161;48.174;11.756;2023-12-20T03:17:15;8.90;56.10
10233;DHT22;5161;48.174;11.756;2023-12-20T03:19:40;9.00;56.20
10233;DHT22;5161;48.174;11.756;2023-12-20T03:22:06;9.00;56.30
10233;DHT22;5161;48.174;11.756;2023-12-20T03:24:31;9.00;56.60
10233;DHT22;5161;48.174;11.756;2023-12-20T03:26:57;9.00;56.70
10233;DHT22;5161;48.174;11.756;2023-12-20T03:29:22;9.00;56.70
10233;DHT22;5161;48.174;11.756;2023-12-20T03:31:48;9.10;56.90
10233;DHT22;5161;48.174;11.756;2023-12-20T03:34:13;9.20;56.80
10233;DHT22;5161;48.174;11.756;2023-12-20T03:36:40;9.20;57.00
10233;DHT22;5161;48.174;11.756;2023-12-20T03:39:05;9.20;57.10
10233;DHT22;5161;48.174;11.756;2023-12-20T03:41:31;9.20;57.80
10233;DHT22;5161;48.174;11.756;2023-12-20T03:43:56;9.20;57.50
10233;DHT22;5161;48.174;11.756;2023-12-20T03:46:22;9.20;57.60
10233;DHT22;5161;48.174;11.756;2023-12-20T03:48:47;9.30;57.80
10233;DHT22;5161;48.174;11.756;2023-12-20T03:51:13;9.30;57.80
10233;DHT22;5161;48.174;11.756;2023-12-20T03:53:38;9.30;58.00
10233;DHT22;5161;48.174;11.756;2023-12-20T03:56:06;9.30;58.20
10233;DHT22;5161;48.174;11.756;2023-12-20T03:58:31;9.30;58.40
10233;DHT22;5161;48.174;11.756;2023-12-20T04:00:57;9.30;58.70
10233;DHT22;5161;48.174;11.756;2023-12-20T04:03:22;9.20;59.30
10233;DHT22;5161;48.174;11.756;2023-12-20T04:05:48;9.10;59.30
10233;DHT22;5161;48.174;11.756;2023-12-20T04:08:13;9.10;59.70
10233;DHT22;5161;48.174;11.756;2023-12-20T04:10:39;9.10;59.70
10233;DHT22;5161;48.174;11.756;2023-12-20T04:13:05;9.20;60.40
10233;DHT22;5161;48.174;11.756;2023-12-20T04:15:30;9.20;61.10
10233;DHT22;5161;48.174;11.756;2023-12-20T04:17:56;9.20;61.90
10233;DHT22;5161;48.174;11.756;2023-12-20T04:20:21;9.20;61.50
10233;DHT22;5161;48.174;11.756;2023-12-20T04:22:47;9.20;61.90
10233;DHT22;5161;48.174;11.756;2023-12-20T04:25:12;9.20;62.70
10233;DHT22;5161;48.174;11.756;2023-12-20T04:27:38;9.20;62.80
10233;DHT22;5161;48.174;11.756;2023-12-20T04:30:04;9.20;63.20
10233;DHT22;5161;48.174;11.756;2023-12-20T04:32:30;9.30;63.20
10233;DHT22;5161;48.174;11.756;2023-12-20T04:34:56;9.30;63.60
10233;DHT22;5161;48.174;11.756;2023-12-20T04:37:22;9.20;64.20
10233;DHT22;5161;48.174;11.756;2023-12-20T04:39:47;9.20;64.30
10233;DHT22;5161;48.174;11.756;2023-12-20T04:42:13;9.10;65.20
10233;DHT22;5161;48.174;11.756;2023-12-20T04:44:38;9.10;65.20
10233;DHT22;5161;48.174;11.756;2023-12-20T04:47:04;9.00;65.20
10233;DHT22;5161;48.174;11.756;2023-12-20T04:49:30;9.10;65.60
10233;DHT22;5161;48.174;11.756;2023-12-20T04:51:55;9.00;66.20
10233;DHT22;5161;48.174;11.756;2023-12-20T04:54:21;9.10;66.00
10233;DHT22;5161;48.174;11.756;2023-12-20T04:56:47;9.10;66.80
10233;DHT22;5161;48.174;11.756;2023-12-20T04:59:13;9.10;66.70
10233;DHT22;5161;48.174;11.756;2023-12-20T05:01:39;9.10;67.00
10233;DHT22;5161;48.174;11.756;2023-12-20T05:04:04;9.00;67.80
10233;DHT22;5161;48.174;11.756;2023-12-20T05:06:30;9.00;68.40
10233;DHT22;5161;48.174;11.756;2023-12-20T05:08:55;9.00;69.90
10233;DHT22;5161;48.174;11.756;2023-12-20T05:11:21;9.00;69.70
10233;DHT22;5161;48.174;11.756;2023-12-20T05:13:47;9.00;70.80
10233;DHT22;5161;48.174;11.756;2023-12-20T05:16:12;8.80;71.20
10233;DHT22;5161;48.174;11.756;2023-12-20T05:18:39;8.80;71.40
10233;DHT22;5161;48.174;11.756;2023-12-20T05:21:05;8.90;71.40
10233;DHT22;5161;48.174;11.756;2023-12-20T05:23:30;8.80;72.00
10233;DHT22;5161;48.174;11.756;2023-12-20T05:25:56;8.70;74.20
10233;DHT22;5161;48.174;11.756;2023-12-20T05:28:22;8.70;73.20
10233;DHT22;5161;48.174;11.756;2023-12-20T05:30:47;8.70;73.80
10233;DHT22;5161;48.174;11.756;2023-12-20T05:33:13;8.60;74.70
10233;DHT22;5161;48.174;11.756;2023-12-20T05:35:38;8.60;74.30
10233;DHT22;5161;48.174;11.756;2023-12-20T05:38:04;8.50;74.50
10233;DHT22;5161;48.174;11.756;2023-12-20T05:40:29;8.50;74.10
10233;DHT22;5161;48.174;11.756;2023-12-20T05:42:55;8.50;74.50
10233;DHT22;5161;48.174;11.756;2023-12-20T05:45:20;8.50;74.30
10233;DHT22;5161;48.174;11.756;2023-12-20T05:47:46;8.50;74.40
10233;DHT22;5161;48.174;11.756;2023-12-20T05:50:11;8.50;74.70
10233;DHT22;5161;48.174;11.756;2023-12-20T05:52:37;8.60;75.00
10233;DHT22;5161;48.174;11.756;2023-12-20T05:55:03;8.40;74.20
10233;DHT22;5161;48.174;11.756;2023-12-20T05:57:28;8.40;73.20
10233;DHT22;5161;48.174;11.756;2023-12-20T05:59:54;8.30;73.70
10233;DHT22;5161;48.174;11.756;2023-12-20T06:02:19;8.20;73.30
10233;DHT22;5161;48.174;11.756;2023-12-20T06:04:45;8.10;73.30
10233;DHT22;5161;48.174;11.756;2023-12-20T06:07:12;8.20;73.60
10233;DHT22;5161;48.174;11.756;2023-12-20T06:09:38;8.10;72.30
10233;DHT22;5161;48.174;11.756;2023-12-20T06:12:03;8.10;73.20
10233;DHT22;5161;48.174;11.756;2023-12-20T06:14:29;8.20;73.30
10233;DHT22;5161;48.174;11.756;2023-12-20T06:16:56;8.30;74.20
10233;DHT22;5161;48.174;11.756;2023-12-20T06:19:22;8.30;74.00
10233;DHT22;5161;48.174;11.756;2023-12-20T06:21:47;8.30;74.00
10233;DHT22;5161;48.174;11.756;2023-12-20T06:24:13;8.20;73.80
10233;DHT22;5161;48.174;11.756;2023-12-20T06:26:39;8.10;73.30
10233;DHT22;5161;48.174;11.756;2023-12-20T06:29:04;8.10;72.90
10233;DHT22;5161;48.174;11.756;2023-12-20T06:31:30;8.10;73.40
10233;DHT22;5161;48.174;11.756;2023-12-20T06:33:57;8.10;73.60
10233;DHT22;5161;48.174;11.756;2023-12-20T06:36:25;8.20;73.70
10233;DHT22;5161;48.174;11.756;2023-12-20T06:38:51;8.10;73.40
10233;DHT22;5161;48.174;11.756;2023-12-20T06:41:16;8.00;73.20
10233;DHT22;5161;48.174;11.756;2023-12-20T06:43:42;7.90;73.70
10233;DHT22;5161;48.174;11.756;2023-12-20T06:46:08;7.70;73.60
10233;DHT22;5161;48.174;11.756;2023-12-20T06:48:34;7.70;74.20
10233;DHT22;5161;48.174;11.756;2023-12-20T06:51:01;7.80;74.40
10233;DHT22;5161;48.174;11.756;2023-12-20T06:53:29;7.90;76.70
10233;DHT22;5161;48.174;11.756;2023-12-20T06:55:55;8.00;74.50
10233;DHT22;5161;48.174;11.756;2023-12-20T06:58:25;8.10;74.00
10233;DHT22;5161;48.174;11.756;2023-12-20T07:00:50;8.00;73.70
10233;DHT22;5161;48.174;11.756;2023-12-20T07:03:17;8.10;73.80
10233;DHT22;5161;48.174;11.756;2023-12-20T07:05:43;7.80;74.90
10233;DHT22;5161;48.174;11.756;2023-12-20T07:08:09;7.70;74.70
10233;DHT22;5161;48.174;11.756;2023-12-20T07:10:34;7.80;74.90
10233;DHT22;5161;48.174;11.756;2023-12-20T07:13:00;7.80;74.90
10233;DHT22;5161;48.174;11.756;2023-12-20T07:15:25;7.80;75.20
10233;DHT22;5161;48.174;11.756;2023-12-20T07:17:53;7.90;75.00
10233;DHT22;5161;48.174;11.756;2023-12-20T07:20:18;7.90;75.10
10233;DHT22;5161;48.174;11.756;2023-12-20T07:22:44;7.90;74.80
10233;DHT22;5161;48.174;11.756;2023-12-20T07:25:09;7.80;74.50
10233;DHT22;5161;48.174;11.756;2023-12-20T07:27:36;7.80;74.90
10233;DHT22;5161;48.174;11.756;2023-12-20T07:30:02;7.70;74.70
10233;DHT22;5161;48.174;11.756;2023-12-20T07:32:27;7.70;75.30
10233;DHT22;5161;48.174;11.756;2023-12-20T07:34:53;7.80;75.30
10233;DHT22;5161;48.174;11.756;2023-12-20T07:37:20;7.80;75.00
10233;DHT22;5161;48.174;11.756;2023-12-20T07:39:46;7.90;75.10
10233;DHT22;5161;48.174;11.756;2023-12-20T07:42:11;7.80;75.10
10233;DHT22;5161;48.174;11.756;2023-12-20T07:44:37;7.70;75.30
10233;DHT22;5161;48.174;11.756;2023-12-20T07:47:03;7.60;75.90
10233;DHT22;5161;48.174;11.756;2023-12-20T07:49:29;7.60;76.40
10233;DHT22;5161;48.174;11.756;2023-12-20T07:51:55;7.60;76.40
10233;DHT22;5161;48.174;11.756;2023-12-20T07:54:20;7.50;76.60
10233;DHT22;5161;48.174;11.756;2023-12-20T07:56:46;7.60;76.40
10233;DHT22;5161;48.174;11.756;2023-12-20T07:59:12;7.70;75.80
10233;DHT22;5161;48.174;11.756;2023-12-20T08:01:37;7.70;75.90
10233;DHT22;5161;48.174;11.756;2023-12-20T08:04:03;7.80;75.80
10233;DHT22;5161;48.174;11.756;2023-12-20T08:06:29;7.70;75.90
10233;DHT22;5161;48.174;11.756;2023-12-20T08:08:54;7.70;75.70
10233;DHT22;5161;48.174;11.756;2023-12-20T08:11:20;7.70;75.80
10233;DHT22;5161;48.174;11.756;2023-12-20T08:13:46;7.50;77.00
10233;DHT22;5161;48.174;11.756;2023-12-20T08:16:11;7.50;76.80
10233;DHT22;5161;48.174;11.756;2023-12-20T08:18:39;7.50;77.00
10233;DHT22;5161;48.174;11.756;2023-12-20T08:21:04;7.50;77.20
10233;DHT22;5161;48.174;11.756;2023-12-20T08:23:33;7.50;77.20
10233;DHT22;5161;48.174;11.756;2023-12-20T08:25:58;7.30;77.50
10233;DHT22;5161;48.174;11.756;2023-12-20T08:28:24;7.30;78.10
10233;DHT22;5161;48.174;11.756;2023-12-20T08:30:49;7.30;78.30
10233;DHT22;5161;48.174;11.756;2023-12-20T08:33:18;7.30;78.50
10233;DHT22;5161;48.174;11.756;2023-12-20T08:35:44;7.50;78.40
10233;DHT22;5161;48.174;11.756;2023-12-20T08:38:10;7.60;78.10
10233;DHT22;5161;48.174;11.756;2023-12-20T08:40:35;7.50;78.00
10233;DHT22;5161;48.174;11.756;2023-12-20T08:43:01;7.50;77.90
10233;DHT22;5161;48.174;11.756;2023-12-20T08:45:26;7.60;78.20
10233;DHT22;5161;48.174;11.756;2023-12-20T08:47:52;7.60;78.20
10233;DHT22;5161;48.174;11.756;2023-12-20T08:50:17;7.60;78.00
10233;DHT22;5161;48.174;11.756;2023-12-20T08:52:43;7.50;78.20
10233;DHT22;5161;48.174;11.756;2023-12-20T08:55:09;7.50;78.30
10233;DHT22;5161;48.174;11.756;2023-12-20T08:57:35;7.40;78.30
10233;DHT22;5161;48.174;11.756;2023-12-20T09:00:01;7.30;78.60
10233;DHT22;5161;48.174;11.756;2023-12-20T09:02:27;7.30;78.80
10233;DHT22;5161;48.174;11.756;2023-12-20T09:04:52;7.50;78.80
10233;DHT22;5161;48.174;11.756;2023-12-20T09:07:25;7.50;78.70
10233;DHT22;5161;48.174;11.756;2023-12-20T09:09:52;7.60;78.90
10233;DHT22;5161;48.174;11.756;2023-12-20T09:12:21;7.70;78.60
10233;DHT22;5161;48.174;11.756;2023-12-20T09:14:48;7.70;78.40
10233;DHT22;5161;48.174;11.756;2023-12-20T09:17:14;7.70;78.40
10233;DHT22;5161;48.174;11.756;2023-12-20T09:19:41;7.70;77.50
10233;DHT22;5161;48.174;11.756;2023-12-20T09:22:06;7.70;77.80
10233;DHT22;5161;48.174;11.756;2023-12-20T09:24:33;7.60;78.30
10233;DHT22;5161;48.174;11.756;2023-12-20T09:26:58;7.60;78.70
10233;DHT22;5161;48.174;11.756;2023-12-20T09:29:24;7.60;78.70
10233;DHT22;5161;48.174;11.756;2023-12-20T09:31:50;7.50;78.80
10233;DHT22;5161;48.174;11.756;2023-12-20T09:34:16;7.50;79.20
10233;DHT22;5161;48.174;11.756;2023-12-20T09:36:42;7.40;79.20
10233;DHT22;5161;48.174;11.756;2023-12-20T09:39:13;7.60;79.70
10233;DHT22;5161;48.174;11.756;2023-12-20T09:41:43;7.50;79.30
10233;DHT22;5161;48.174;11.756;2023-12-20T09:44:13;7.50;79.70
10233;DHT22;5161;48.174;11.756;2023-12-20T09:46:43;7.60;79.80
10233;DHT22;5161;48.174;11.756;2023-12-20T09:49:10;7.50;79.50
10233;DHT22;5161;48.174;11.756;2023-12-20T09:51:36;7.50;79.70
10233;DHT22;5161;48.174;11.756;2023-12-20T09:54:03;7.50;79.80
10233;DHT22;5161;48.174;11.756;2023-12-20T09:56:30;7.50;79.90
10233;DHT22;5161;48.174;11.756;2023-12-20T09:58:56;7.60;80.00
10233;DHT22;5161;48.174;11.756;2023-12-20T10:01:21;7.60;79.90
10233;DHT22;5161;48.174;11.756;2023-12-20T10:03:47;7.70;79.80
10233;DHT22;5161;48.174;11.756;2023-12-20T10:06:13;7.70;80.00
10233;DHT22;5161;48.174;11.756;2023-12-20T10:08:39;7.70;80.00
10233;DHT22;5161;48.174;11.756;2023-12-20T10:11:05;7.80;79.80
10233;DHT22;5161;48.174;11.756;2023-12-20T10:13:31;7.70;80.00
10233;DHT22;5161;48.174;11.756;2023-12-20T10:15:56;7.70;80.20
10233;DHT22;5161;48.174;11.756;2023-12-20T10:18:22;7.70;80.30
10233;DHT22;5161;48.174;11.756;2023-12-20T10:20:48;7.70;80.70
10233;DHT22;5161;48.174;11.756;2023-12-20T10:23:15;7.60;80.70
10233;DHT22;5161;48.174;11.756;2023-12-20T10:25:41;7.70;80.90
10233;DHT22;5161;48.174;11.756;2023-12-20T10:28:14;7.60;80.80
10233;DHT22;5161;48.174;11.756;2023-12-20T10:30:44;7.80;81.10
10233;DHT22;5161;48.174;11.756;2023-12-20T10:33:10;7.80;80.60
10233;DHT22;5161;48.174;11.756;2023-12-20T10:35:36;7.80;80.40
10233;DHT22;5161;48.174;11.756;2023-12-20T10:38:04;7.90;80.70
10233;DHT22;5161;48.174;11.756;2023-12-20T10:40:31;7.90;80.70
10233;DHT22;5161;48.174;11.756;2023-12-20T10:42:59;7.90;80.40
10233;DHT22;5161;48.174;11.756;2023-12-20T10:45:25;7.90;80.80
10233;DHT22;5161;48.174;11.756;2023-12-20T10:47:51;7.80;80.90
10233;DHT22;5161;48.174;11.756;2023-12-20T10:50:18;7.80;81.20
10233;DHT22;5161;48.174;11.756;2023-12-20T10:52:46;7.80;81.30
10233;DHT22;5161;48.174;11.756;2023-12-20T10:55:12;7.70;81.60
10233;DHT22;5161;48.174;11.756;2023-12-20T10:57:38;7.90;81.70
10233;DHT22;5161;48.174;11.756;2023-12-20T11:00:06;7.90;81.40
10233;DHT22;5161;48.174;11.756;2023-12-20T11:02:39;7.90;81.60
10233;DHT22;5161;48.174;11.756;2023-12-20T11:05:19;7.90;81.60
10233;DHT22;5161;48.174;11.756;2023-12-20T11:07:55;7.90;81.60
10233;DHT22;5161;48.174;11.756;2023-12-20T11:10:30;7.80;81.70
10233;DHT22;5161;48.174;11.756;2023-12-20T11:13:16;7.80;81.70
10233;DHT22;5161;48.174;11.756;2023-12-20T11:15:43;7.70;81.80
10233;DHT22;5161;48.174;11.756;2023-12-20T11:18:08;7.80;81.80
10233;DHT22;5161;48.174;11.756;2023-12-20T11:20:39;7.80;81.60
10233;DHT22;5161;48.174;11.756;2023-12-20T11:23:05;7.90;81.80
10233;DHT22;5161;48.174;11.756;2023-12-20T11:25:49;7.90;81.50
10233;DHT22;5161;48.174;11.756;2023-12-20T11:28:21;7.80;82.00
10233;DHT22;5161;48.174;11.756;2023-12-20T11:33:14;7.90;81.60
10233;DHT22;5161;48.174;11.756;2023-12-20T11:35:40;7.90;81.70
10233;DHT22;5161;48.174;11.756;2023-12-20T11:38:08;8.00;81.60
10233;DHT22;5161;48.174;11.756;2023-12-20T11:40:35;7.80;81.90
10233;DHT22;5161;48.174;11.756;2023-12-20T11:43:00;7.80;81.80
10233;DHT22;5161;48.174;11.756;2023-12-20T11:45:26;7.90;81.60
10233;DHT22;5161;48.174;11.756;2023-12-20T11:47:53;8.00;81.30
10233;DHT22;5161;48.174;11.756;2023-12-20T11:50:22;8.00;81.50
10233;DHT22;5161;48.174;11.756;2023-12-20T11:52:49;8.00;80.90
10233;DHT22;5161;48.174;11.756;2023-12-20T11:55:15;8.00;81.70
10233;DHT22;5161;48.174;11.756;2023-12-20T11:57:42;8.00;80.90
10233;DHT22;5161;48.174;11.756;2023-12-20T12:00:08;7.90;80.70
10233;DHT22;5161;48.174;11.756;2023-12-20T12:02:34;7.90;80.70
10233;DHT22;5161;48.174;11.756;2023-12-20T12:05:00;7.90;81.00
10233;DHT22;5161;48.174;11.756;2023-12-20T12:07:25;7.90;80.60
10233;DHT22;5161;48.174;11.756;2023-12-20T12:09:51;7.90;80.40
10233;DHT22;5161;48.174;11.756;2023-12-20T12:12:17;8.00;80.40
10233;DHT22;5161;48.174;11.756;2023-12-20T12:14:45;8.00;80.10
10233;DHT22;5161;48.174;11.756;2023-12-20T12:17:11;7.90;80.40
10233;DHT22;5161;48.174;11.756;2023-12-20T12:19:38;8.00;80.60
10233;DHT22;5161;48.174;11.756;2023-12-20T12:22:08;8.00;80.20
10233;DHT22;5161;48.174;11.756;2023-12-20T12:24:38;8.00;81.00
10233;DHT22;5161;48.174;11.756;2023-12-20T12:27:06;8.00;80.40
10233;DHT22;5161;48.174;11.756;2023-12-20T12:29:32;8.10;80.60
10233;DHT22;5161;48.174;11.756;2023-12-20T12:31:57;8.00;79.90
10233;DHT22;5161;48.174;11.756;2023-12-20T12:34:23;8.10;79.80
10233;DHT22;5161;48.174;11.756;2023-12-20T12:36:49;8.10;79.40
10233;DHT22;5161;48.174;11.756;2023-12-20T12:39:15;8.10;79.40
10233;DHT22;5161;48.174;11.756;2023-12-20T12:41:41;8.00;80.00
10233;DHT22;5161;48.174;11.756;2023-12-20T12:44:06;8.00;79.90
10233;DHT22;5161;48.174;11.756;2023-12-20T12:46:32;8.00;79.50
10233;DHT22;5161;48.174;11.756;2023-12-20T12:48:58;8.00;78.90
10233;DHT22;5161;48.174;11.756;2023-12-20T12:51:23;8.00;79.10
10233;DHT22;5161;48.174;11.756;2023-12-20T12:53:49;8.10;79.10
10233;DHT22;5161;48.174;11.756;2023-12-20T12:56:15;8.10;78.60
10233;DHT22;5161;48.174;11.756;2023-12-20T12:58:41;8.10;78.70
10233;DHT22;5161;48.174;11.756;2023-12-20T13:01:06;8.10;78.60
10233;DHT22;5161;48.174;11.756;2023-12-20T13:03:32;8.20;79.00
10233;DHT22;5161;48.174;11.756;2023-12-20T13:05:58;8.20;79.00
10233;DHT22;5161;48.174;11.756;2023-12-20T13:08:24;8.20;79.00
10233;DHT22;5161;48.174;11.756;2023-12-20T13:10:49;8.20;79.00
10233;DHT22;5161;48.174;11.756;2023-12-20T13:13:15;8.20;79.20
10233;DHT22;5161;48.174;11.756;2023-12-20T13:15:40;8.20;79.30
10233;DHT22;5161;48.174;11.756;2023-12-20T13:18:06;8.20;79.60
10233;DHT22;5161;48.174;11.756;2023-12-20T13:20:32;8.10;79.30
10233;DHT22;5161;48.174;11.756;2023-12-20T13:22:58;8.10;79.80
10233;DHT22;5161;48.174;11.756;2023-12-20T13:25:24;8.00;79.00
10233;DHT22;5161;48.174;11.756;2023-12-20T13:27:50;8.00;78.80
10233;DHT22;5161;48.174;11.756;2023-12-20T13:30:18;7.90;79.40
10233;DHT22;5161;48.174;11.756;2023-12-20T13:32:44;7.80;79.70
10233;DHT22;5161;48.174;11.756;2023-12-20T13:35:09;7.80;79.60
10233;DHT22;5161;48.174;11.756;2023-12-20T13:37:35;7.80;79.80
10233;DHT22;5161;48.174;11.756;2023-12-20T13:40:00;7.90;79.40
10233;DHT22;5161;48.174;11.756;2023-12-20T13:42:28;7.90;79.20
10233;DHT22;5161;48.174;11.756;2023-12-20T13:44:54;7.90;78.90
10233;DHT22;5161;48.174;11.756;2023-12-20T13:47:19;7.80;77.90
10233;DHT22;5161;48.174;11.756;2023-12-20T13:49:48;7.90;77.80
10233;DHT22;5161;48.174;11.756;2023-12-20T13:52:13;7.90;78.10
10233;DHT22;5161;48.174;11.756;2023-12-20T13:54:39;7.80;76.30
10233;DHT22;5161;48.174;11.756;2023-12-20T13:57:04;7.70;76.70
10233;DHT22;5161;48.174;11.756;2023-12-20T13:59:30;7.70;76.80
10233;DHT22;5161;48.174;11.756;2023-12-20T14:01:56;7.70;76.90
10233;DHT22;5161;48.174;11.756;2023-12-20T14:04:22;7.70;76.50
10233;DHT22;5161;48.174;11.756;2023-12-20T14:06:48;7.80;76.70
10233;DHT22;5161;48.174;11.756;2023-12-20T14:09:13;7.80;76.60
10233;DHT22;5161;48.174;11.756;2023-12-20T14:11:40;7.90;76.10
10233;DHT22;5161;48.174;11.756;2023-12-20T14:14:07;7.90;75.80
10233;DHT22;5161;48.174;11.756;2023-12-20T14:16:35;7.80;75.30
10233;DHT22;5161;48.174;11.756;2023-12-20T14:19:01;7.80;75.30
10233;DHT22;5161;48.174;11.756;2023-12-20T14:21:28;7.80;75.20
10233;DHT22;5161;48.174;11.756;2023-12-20T14:23:54;7.80;74.80
10233;DHT22;5161;48.174;11.756;2023-12-20T14:26:19;7.80;75.20
10233;DHT22;5161;48.174;11.756;2023-12-20T14:28:45;7.80;75.20
10233;DHT22;5161;48.174;11.756;2023-12-20T14:31:10;7.80;74.80
10233;DHT22;5161;48.174;11.756;2023-12-20T14:33:37;7.80;74.80
10233;DHT22;5161;48.174;11.756;2023-12-20T14:36:05;7.90;74.80
10233;DHT22;5161;48.174;11.756;2023-12-20T14:38:31;7.90;74.50
10233;DHT22;5161;48.174;11.756;2023-12-20T14:40:57;7.80;74.30
10233;DHT22;5161;48.174;11.756;2023-12-20T14:43:23;7.70;73.80
10233;DHT22;5161;48.174;11.756;2023-12-20T14:45:48;7.70;73.90
10233;DHT22;5161;48.174;11.756;2023-12-20T14:48:14;7.70;73.60
10233;DHT22;5161;48.174;11.756;2023-12-20T14:50:39;7.70;73.50
10233;DHT22;5161;48.174;11.756;2023-12-20T14:53:08;7.70;73.80
10233;DHT22;5161;48.174;11.756;2023-12-20T14:55:34;7.70;73.90
10233;DHT22;5161;48.174;11.756;2023-12-20T14:57:59;7.70;74.20
10233;DHT22;5161;48.174;11.756;2023-12-20T15:00:26;7.80;73.60
10233;DHT22;5161;48.174;11.756;2023-12-20T15:02:52;7.70;73.40
10233;DHT22;5161;48.174;11.756;2023-12-20T15:05:19;7.70;73.30
10233;DHT22;5161;48.174;11.756;2023-12-20T15:07:45;7.70;73.60
10233;DHT22;5161;48.174;11.756;2023-12-20T15:10:11;7.70;73.60
10233;DHT22;5161;48.174;11.756;2023-12-20T15:12:36;7.70;73.60
10233;DHT22;5161;48.174;11.756;2023-12-20T15:15:02;7.60;73.20
10233;DHT22;5161;48.174;11.756;2023-12-20T15:17:28;7.60;72.70
10233;DHT22;5161;48.174;11.756;2023-12-20T15:19:53;7.60;73.10
10233;DHT22;5161;48.174;11.756;2023-12-20T15:22:19;7.50;72.50
10233;DHT22;5161;48.174;11.756;2023-12-20T15:24:44;7.50;72.80
10233;DHT22;5161;48.174;11.756;2023-12-20T15:27:11;7.50;72.60
10233;DHT22;5161;48.174;11.756;2023-12-20T15:29:37;7.50;72.80
10233;DHT22;5161;48.174;11.756;2023-12-20T15:32:03;7.60;73.20
10233;DHT22;5161;48.174;11.756;2023-12-20T15:34:31;7.60;72.90
10233;DHT22;5161;48.174;11.756;2023-12-20T15:36:57;7.70;73.90
10233;DHT22;5161;48.174;11.756;2023-12-20T15:39:23;7.70;73.90